Time;durP1;ratioP1;P1;durP2;ratioP2;P2;SDS_P1;SDS_P2;PMS_P1;PMS_P2;Temp;Humidity;BMP_temperature;BMP_pressure;BME280_temperature;BME280_humidity;BME280_pressure;Samples;Min_cycle;Max_cycle;Signal;HPM_P1;HPM_P2
2022/04/14 00:00:24;;;;;;;;;;;13.70;72.20;;;;;;5119882;28;19911;-83
2022/04/14 00:02:50;;;;;;;;;;;13.60;73.00;;;;;;5119858;28;19914;-84
2022/04/14 00:05:16;;;;;;;;;;;13.60;72.60;;;;;;5119709;28;19907;-84
2022/04/14 00:07:44;;;;;;;;;;;13.50;73.00;;;;;;5119804;28;19915;-83
2022/04/14 00:10:09;;;;;;;;;;;13.50;74.60;;;;;;5088553;28;19943;-83
2022/04/14 00:12:35;;;;;;;;;;;13.40;73.20;;;;;;5119444;28;19915;-84
2022/04/14 00:15:01;;;;;;;;;;;13.40;73.60;;;;;;5107523;28;20583;-81
2022/04/14 00:17:29;;;;;;;;;;;13.30;72.90;;;;;;5075842;28;19915;-82
2022/04/14 00:19:54;;;;;;;;;;;13.30;71.30;;;;;;5116755;28;19908;-81
2022/04/14 00:22:20;;;;;;;;;;;13.20;70.60;;;;;;5089216;28;19914;-82
2022/04/14 00:24:46;;;;;;;;;;;13.10;70.20;;;;;;5106997;28;19922;-84
2022/04/14 00:27:11;;;;;;;;;;;13.10;71.20;;;;;;5117715;28;19915;-84
2022/04/14 00:29:37;;;;;;;;;;;13.00;70.80;;;;;;5118929;28;19911;-84
2022/04/14 00:32:02;;;;;;;;;;;13.00;73.60;;;;;;5107693;28;19927;-85
2022/04/14 00:34:28;;;;;;;;;;;13.00;74.30;;;;;;5108047;28;19919;-76
2022/04/14 00:36:54;;;;;;;;;;;12.90;75.20;;;;;;5116034;28;20002;-81
2022/04/14 00:39:19;;;;;;;;;;;12.90;74.90;;;;;;5108705;28;19954;-81
2022/04/14 00:41:45;;;;;;;;;;;12.90;76.10;;;;;;5098400;28;19961;-81
2022/04/14 00:44:11;;;;;;;;;;;12.80;74.80;;;;;;5085636;28;19926;-83
2022/04/14 00:46:36;;;;;;;;;;;12.80;76.00;;;;;;5102937;28;19915;-84
2022/04/14 00:49:03;;;;;;;;;;;12.70;75.50;;;;;;5106112;28;20018;-83
2022/04/14 00:51:28;;;;;;;;;;;12.70;75.40;;;;;;5104339;28;19960;-82
2022/04/14 00:53:54;;;;;;;;;;;12.70;76.20;;;;;;5093932;28;20404;-80
2022/04/14 00:56:20;;;;;;;;;;;12.60;75.70;;;;;;5101106;28;19912;-80
2022/04/14 00:58:45;;;;;;;;;;;12.60;74.70;;;;;;5114195;28;20392;-81
2022/04/14 01:01:12;;;;;;;;;;;12.50;76.20;;;;;;5116703;28;19908;-80
2022/04/14 01:03:38;;;;;;;;;;;12.50;74.70;;;;;;5111969;28;19912;-80
2022/04/14 01:06:04;;;;;;;;;;;12.40;74.40;;;;;;5110729;28;19912;-80
2022/04/14 01:08:34;;;;;;;;;;;12.40;74.70;;;;;;5105870;28;19958;-80
2022/04/14 01:10:59;;;;;;;;;;;12.40;75.90;;;;;;5094556;28;19927;-79
2022/04/14 01:13:25;;;;;;;;;;;12.30;74.80;;;;;;5115708;28;19911;-80
2022/04/14 01:15:56;;;;;;;;;;;12.30;76.10;;;;;;5097936;28;19912;-80
2022/04/14 01:18:21;;;;;;;;;;;12.20;76.50;;;;;;5100685;28;19914;-77
2022/04/14 01:20:47;;;;;;;;;;;12.20;76.80;;;;;;5112868;28;19999;-80
2022/04/14 01:23:14;;;;;;;;;;;12.20;76.10;;;;;;5109487;28;19929;-81
2022/04/14 01:25:39;;;;;;;;;;;12.10;76.90;;;;;;5082629;28;20003;-80
2022/04/14 01:28:05;;;;;;;;;;;12.10;76.70;;;;;;5100223;28;19954;-80
2022/04/14 01:30:32;;;;;;;;;;;12.00;75.80;;;;;;5084764;28;19966;-81
2022/04/14 01:32:57;;;;;;;;;;;11.90;74.10;;;;;;5098595;28;19920;-81
2022/04/14 01:35:23;;;;;;;;;;;11.90;73.60;;;;;;5109238;28;19963;-81
2022/04/14 01:37:49;;;;;;;;;;;11.80;73.10;;;;;;5100677;28;19911;-81
2022/04/14 01:40:15;;;;;;;;;;;11.80;72.90;;;;;;5092236;28;19930;-80
2022/04/14 01:42:41;;;;;;;;;;;11.80;73.70;;;;;;5079827;28;20387;-81
2022/04/14 01:45:09;;;;;;;;;;;11.70;72.80;;;;;;5104979;28;19915;-81
2022/04/14 01:47:40;;;;;;;;;;;11.60;72.70;;;;;;5111375;28;19938;-80
2022/04/14 01:50:07;;;;;;;;;;;11.60;72.40;;;;;;5117607;28;19983;-81
2022/04/14 01:52:33;;;;;;;;;;;11.50;72.50;;;;;;5111216;28;19994;-80
2022/04/14 01:54:59;;;;;;;;;;;11.50;72.40;;;;;;5098428;28;19911;-80
2022/04/14 01:57:24;;;;;;;;;;;11.40;72.60;;;;;;5105159;28;19916;-81
2022/04/14 01:59:50;;;;;;;;;;;11.40;75.30;;;;;;5092601;28;19912;-81
2022/04/14 02:02:15;;;;;;;;;;;11.40;74.10;;;;;;5105530;28;19911;-81
2022/04/14 02:04:42;;;;;;;;;;;11.30;73.10;;;;;;5097236;28;19934;-81
2022/04/14 02:07:09;;;;;;;;;;;11.20;72.50;;;;;;5103230;28;19923;-81
2022/04/14 02:09:35;;;;;;;;;;;11.20;72.40;;;;;;5105906;28;19916;-81
2022/04/14 02:12:01;;;;;;;;;;;11.20;75.50;;;;;;5103962;28;19912;-81
2022/04/14 02:14:26;;;;;;;;;;;11.20;74.40;;;;;;5094038;28;19948;-81
2022/04/14 02:16:53;;;;;;;;;;;11.10;75.20;;;;;;5094364;28;19908;-81
2022/04/14 02:19:19;;;;;;;;;;;11.10;75.60;;;;;;5110948;28;19907;-81
2022/04/14 02:21:44;;;;;;;;;;;11.10;77.20;;;;;;5121818;28;19915;-81
2022/04/14 02:24:10;;;;;;;;;;;11.10;78.10;;;;;;5121780;28;19908;-80
2022/04/14 02:26:35;;;;;;;;;;;11.10;78.90;;;;;;5113533;28;19909;-81
2022/04/14 02:29:01;;;;;;;;;;;11.10;77.70;;;;;;5115071;28;19916;-80
2022/04/14 02:31:27;;;;;;;;;;;11.00;75.50;;;;;;5109821;28;19918;-81
2022/04/14 02:33:52;;;;;;;;;;;11.00;75.70;;;;;;5109971;28;19967;-81
2022/04/14 02:36:18;;;;;;;;;;;10.90;74.60;;;;;;5119927;28;19908;-81
2022/04/14 02:38:45;;;;;;;;;;;10.90;73.80;;;;;;5120009;28;19908;-81
2022/04/14 02:41:11;;;;;;;;;;;10.80;75.70;;;;;;5112255;28;19908;-80
2022/04/14 02:43:37;;;;;;;;;;;10.80;74.30;;;;;;5095396;28;19916;-81
2022/04/14 02:46:04;;;;;;;;;;;10.80;76.40;;;;;;5111298;28;19947;-80
2022/04/14 02:48:30;;;;;;;;;;;10.80;76.00;;;;;;5121463;28;19908;-80
2022/04/14 02:50:56;;;;;;;;;;;10.70;76.60;;;;;;5111343;28;19951;-81
2022/04/14 02:53:22;;;;;;;;;;;10.70;76.50;;;;;;5109505;28;19916;-81
2022/04/14 02:55:47;;;;;;;;;;;10.70;75.50;;;;;;5103116;28;19943;-81
2022/04/14 02:58:13;;;;;;;;;;;10.60;75.60;;;;;;5103618;28;19992;-80
2022/04/14 03:00:39;;;;;;;;;;;10.60;75.80;;;;;;5096884;28;19919;-81
2022/04/14 03:03:05;;;;;;;;;;;10.60;75.30;;;;;;5113366;28;19919;-81
2022/04/14 03:05:30;;;;;;;;;;;10.50;76.00;;;;;;5101644;28;19912;-81
2022/04/14 03:07:56;;;;;;;;;;;10.50;77.90;;;;;;5107891;28;19912;-81
2022/04/14 03:10:22;;;;;;;;;;;10.50;78.40;;;;;;5099949;28;19916;-81
2022/04/14 03:12:47;;;;;;;;;;;10.50;77.90;;;;;;5097415;28;19916;-81
2022/04/14 03:15:13;;;;;;;;;;;10.40;76.40;;;;;;5096967;28;19943;-81
2022/04/14 03:17:39;;;;;;;;;;;10.40;75.70;;;;;;5095733;28;19951;-80
2022/04/14 03:20:05;;;;;;;;;;;10.40;75.60;;;;;;5098849;28;19957;-81
2022/04/14 03:22:33;;;;;;;;;;;10.30;75.20;;;;;;5105589;28;19915;-81
2022/04/14 03:25:00;;;;;;;;;;;10.30;74.60;;;;;;5105911;28;19919;-81
2022/04/14 03:27:25;;;;;;;;;;;10.20;74.30;;;;;;5091227;28;19912;-81
2022/04/14 03:29:51;;;;;;;;;;;10.20;74.00;;;;;;5079481;28;19917;-81
2022/04/14 03:32:16;;;;;;;;;;;10.10;75.20;;;;;;5099050;28;20294;-81
2022/04/14 03:34:42;;;;;;;;;;;10.10;77.10;;;;;;5093181;28;19943;-81
2022/04/14 03:37:08;;;;;;;;;;;10.10;77.00;;;;;;5088670;28;19912;-81
2022/04/14 03:39:33;;;;;;;;;;;10.10;77.70;;;;;;5098497;28;19915;-81
2022/04/14 03:41:59;;;;;;;;;;;10.10;78.40;;;;;;5102336;28;19908;-81
2022/04/14 03:44:24;;;;;;;;;;;10.10;78.20;;;;;;5103649;28;20413;-80
2022/04/14 03:46:50;;;;;;;;;;;10.00;79.60;;;;;;5090012;28;19985;-81
2022/04/14 03:49:16;;;;;;;;;;;10.00;78.20;;;;;;5091874;28;20007;-81
2022/04/14 03:51:41;;;;;;;;;;;10.00;80.10;;;;;;5110510;28;19912;-80
2022/04/14 03:54:07;;;;;;;;;;;9.90;78.50;;;;;;5092047;28;20282;-80
2022/04/14 03:56:33;;;;;;;;;;;9.90;79.50;;;;;;5092517;28;19983;-81
2022/04/14 03:59:00;;;;;;;;;;;9.80;78.40;;;;;;5109951;28;19934;-80
2022/04/14 04:01:26;;;;;;;;;;;9.80;78.80;;;;;;5084302;28;19973;-81
2022/04/14 04:03:51;;;;;;;;;;;9.80;79.60;;;;;;5115496;28;19908;-81
2022/04/14 04:06:17;;;;;;;;;;;9.80;78.80;;;;;;5097459;28;19912;-81
2022/04/14 04:08:43;;;;;;;;;;;9.70;78.80;;;;;;5062205;28;19998;-81
2022/04/14 04:11:08;;;;;;;;;;;9.70;77.20;;;;;;5097422;28;19919;-81
2022/04/14 04:13:34;;;;;;;;;;;9.70;76.70;;;;;;5096847;28;20214;-81
2022/04/14 04:15:59;;;;;;;;;;;9.60;76.20;;;;;;5096644;28;19912;-81
2022/04/14 04:18:25;;;;;;;;;;;9.60;75.80;;;;;;5098267;28;19935;-81
2022/04/14 04:20:51;;;;;;;;;;;9.60;75.90;;;;;;5098012;28;19947;-81
2022/04/14 04:23:16;;;;;;;;;;;9.50;76.00;;;;;;5098416;28;19912;-81
2022/04/14 04:25:42;;;;;;;;;;;9.40;76.30;;;;;;5106025;28;20335;-81
2022/04/14 04:28:07;;;;;;;;;;;9.40;76.10;;;;;;5095996;28;19926;-80
2022/04/14 04:30:33;;;;;;;;;;;9.40;76.50;;;;;;5096722;28;20026;-81
2022/04/14 04:32:59;;;;;;;;;;;9.30;76.50;;;;;;5095262;28;19963;-81
2022/04/14 04:35:24;;;;;;;;;;;9.30;76.40;;;;;;5098358;28;20305;-81
2022/04/14 04:37:50;;;;;;;;;;;9.20;76.40;;;;;;5097844;28;20323;-80
2022/04/14 04:40:18;;;;;;;;;;;9.20;76.60;;;;;;5081617;28;19914;-81
2022/04/14 04:42:44;;;;;;;;;;;9.20;76.70;;;;;;5114831;28;19965;-81
2022/04/14 04:45:09;;;;;;;;;;;9.10;76.40;;;;;;5108291;28;20381;-81
2022/04/14 04:47:35;;;;;;;;;;;9.10;78.00;;;;;;5097148;28;19912;-81
2022/04/14 04:50:01;;;;;;;;;;;9.10;78.60;;;;;;5095588;28;19987;-81
2022/04/14 04:52:26;;;;;;;;;;;9.00;77.70;;;;;;5106522;28;20285;-81
2022/04/14 04:54:52;;;;;;;;;;;9.00;77.20;;;;;;5118150;28;19908;-81
2022/04/14 04:57:17;;;;;;;;;;;9.00;77.80;;;;;;5079670;28;19912;-81
2022/04/14 04:59:43;;;;;;;;;;;8.90;77.30;;;;;;5079848;28;19915;-81
2022/04/14 05:02:09;;;;;;;;;;;8.90;77.10;;;;;;5118006;28;19911;-80
2022/04/14 05:04:34;;;;;;;;;;;8.90;77.00;;;;;;5086471;28;19920;-79
2022/04/14 05:07:00;;;;;;;;;;;8.80;76.90;;;;;;5093503;28;19912;-81
2022/04/14 05:09:26;;;;;;;;;;;8.80;77.10;;;;;;5090796;28;19924;-81
2022/04/14 05:11:51;;;;;;;;;;;8.80;77.20;;;;;;5096585;28;19912;-80
2022/04/14 05:14:17;;;;;;;;;;;8.70;77.10;;;;;;5096907;28;19957;-81
2022/04/14 05:16:42;;;;;;;;;;;8.70;77.20;;;;;;5098023;28;19958;-81
2022/04/14 05:19:08;;;;;;;;;;;8.70;77.20;;;;;;5117575;28;19942;-81
2022/04/14 05:21:33;;;;;;;;;;;8.60;77.20;;;;;;5118076;28;19951;-80
2022/04/14 05:24:00;;;;;;;;;;;8.60;77.20;;;;;;5087250;28;19944;-80
2022/04/14 05:26:25;;;;;;;;;;;8.60;77.00;;;;;;5095673;28;19923;-75
2022/04/14 05:28:51;;;;;;;;;;;8.50;76.90;;;;;;5111649;28;19955;-77
2022/04/14 05:31:16;;;;;;;;;;;8.50;76.70;;;;;;5091893;28;20023;-73
2022/04/14 05:33:42;;;;;;;;;;;8.50;76.70;;;;;;5093102;28;19908;-74
2022/04/14 05:36:08;;;;;;;;;;;8.50;78.10;;;;;;5092380;28;19921;-73
2022/04/14 05:38:33;;;;;;;;;;;8.50;78.10;;;;;;5108526;28;20002;-78
2022/04/14 05:40:59;;;;;;;;;;;8.50;77.50;;;;;;5091826;28;19914;-72
2022/04/14 05:43:27;;;;;;;;;;;8.50;77.30;;;;;;5111264;28;19912;-77
2022/04/14 05:45:54;;;;;;;;;;;8.60;77.70;;;;;;5117427;28;19912;-75
2022/04/14 05:48:19;;;;;;;;;;;8.60;78.40;;;;;;5117563;28;20275;-73
2022/04/14 05:50:45;;;;;;;;;;;8.60;78.90;;;;;;5117571;28;19916;-75
2022/04/14 05:53:11;;;;;;;;;;;8.60;79.20;;;;;;5110825;28;20370;-73
2022/04/14 05:55:37;;;;;;;;;;;8.60;78.90;;;;;;5111009;28;19912;-70
2022/04/14 05:58:03;;;;;;;;;;;8.70;79.60;;;;;;5116090;28;19911;-74
2022/04/14 06:00:29;;;;;;;;;;;8.60;78.40;;;;;;5117326;28;19911;-81
2022/04/14 06:02:56;;;;;;;;;;;8.70;79.60;;;;;;5117791;28;19912;-77
2022/04/14 06:05:22;;;;;;;;;;;8.70;78.40;;;;;;5118210;28;19953;-79
2022/04/14 06:07:48;;;;;;;;;;;8.70;77.50;;;;;;5117339;28;20362;-78
2022/04/14 06:10:13;;;;;;;;;;;8.70;77.20;;;;;;5117041;28;19916;-77
2022/04/14 06:12:39;;;;;;;;;;;8.70;77.10;;;;;;5117655;28;20282;-76
2022/04/14 06:15:05;;;;;;;;;;;8.70;77.20;;;;;;5098597;28;20382;-74
2022/04/14 06:17:30;;;;;;;;;;;8.70;77.00;;;;;;5103226;28;19912;-73
2022/04/14 06:19:56;;;;;;;;;;;8.70;77.10;;;;;;5098532;28;19908;-72
2022/04/14 06:22:22;;;;;;;;;;;8.70;77.20;;;;;;5106487;28;19912;-73
2022/04/14 06:24:48;;;;;;;;;;;8.70;77.40;;;;;;5096244;28;19912;-74
2022/04/14 06:27:13;;;;;;;;;;;8.80;77.20;;;;;;5101441;28;19931;-75
2022/04/14 06:29:39;;;;;;;;;;;8.80;77.00;;;;;;5096725;28;19998;-77
2022/04/14 06:32:05;;;;;;;;;;;8.80;77.50;;;;;;5095438;28;19931;-76
2022/04/14 06:34:30;;;;;;;;;;;8.80;77.50;;;;;;5095917;28;19912;-76
2022/04/14 06:36:56;;;;;;;;;;;8.90;76.90;;;;;;5100711;28;19915;-76
2022/04/14 06:39:22;;;;;;;;;;;8.90;76.80;;;;;;5089953;28;19912;-76
2022/04/14 06:41:47;;;;;;;;;;;9.00;78.90;;;;;;5096471;28;19931;-76
2022/04/14 06:44:13;;;;;;;;;;;9.00;80.40;;;;;;5100519;28;19908;-75
2022/04/14 06:46:39;;;;;;;;;;;9.10;80.70;;;;;;5097340;28;19920;-76
2022/04/14 06:49:05;;;;;;;;;;;9.10;80.10;;;;;;5105192;28;19916;-76
2022/04/14 06:51:31;;;;;;;;;;;9.10;79.60;;;;;;5089167;28;19912;-77
2022/04/14 06:53:57;;;;;;;;;;;9.20;80.20;;;;;;5095086;28;19955;-76
2022/04/14 06:56:22;;;;;;;;;;;9.30;80.40;;;;;;5102594;28;19919;-76
2022/04/14 06:58:48;;;;;;;;;;;9.30;79.70;;;;;;5089161;28;19909;-76
2022/04/14 07:01:14;;;;;;;;;;;9.40;79.20;;;;;;5086324;28;19912;-76
2022/04/14 07:03:39;;;;;;;;;;;9.40;79.60;;;;;;5099547;28;20007;-76
2022/04/14 07:06:05;;;;;;;;;;;9.50;79.80;;;;;;5091005;28;19970;-76
2022/04/14 07:08:33;;;;;;;;;;;9.60;79.00;;;;;;5099919;28;20330;-76
2022/04/14 07:10:59;;;;;;;;;;;9.70;78.60;;;;;;5094539;28;20381;-76
2022/04/14 07:13:24;;;;;;;;;;;9.70;78.50;;;;;;5096194;28;19912;-76
2022/04/14 07:15:50;;;;;;;;;;;9.90;78.90;;;;;;5089812;28;20370;-76
2022/04/14 07:18:16;;;;;;;;;;;10.00;79.20;;;;;;5076325;28;20282;-77
2022/04/14 07:20:44;;;;;;;;;;;10.10;79.40;;;;;;5094771;28;20363;-76
2022/04/14 07:23:10;;;;;;;;;;;10.30;79.70;;;;;;5106282;28;20374;-77
2022/04/14 07:25:36;;;;;;;;;;;10.40;79.80;;;;;;5105490;28;19908;-80
2022/04/14 07:28:01;;;;;;;;;;;10.70;81.50;;;;;;5102997;28;19920;-75
2022/04/14 07:30:27;;;;;;;;;;;11.30;84.10;;;;;;5093658;28;20334;-74
2022/04/14 07:32:53;;;;;;;;;;;12.30;85.80;;;;;;5099762;28;19939;-75
2022/04/14 07:35:22;;;;;;;;;;;13.10;85.80;;;;;;5109249;28;20003;-74
2022/04/14 07:37:48;;;;;;;;;;;13.90;86.70;;;;;;5110123;28;20023;-74
2022/04/14 07:40:13;;;;;;;;;;;14.80;86.80;;;;;;5099515;28;20286;-74
2022/04/14 07:42:40;;;;;;;;;;;15.60;86.00;;;;;;5106250;28;19908;-74
2022/04/14 07:45:07;;;;;;;;;;;16.40;85.00;;;;;;5115663;28;20286;-75
2022/04/14 07:47:33;;;;;;;;;;;17.00;83.80;;;;;;5117970;28;19912;-75
2022/04/14 07:49:59;;;;;;;;;;;17.50;82.20;;;;;;5113520;28;20472;-74
2022/04/14 07:52:25;;;;;;;;;;;18.10;81.30;;;;;;5107581;28;20384;-75
2022/04/14 07:54:50;;;;;;;;;;;18.50;79.60;;;;;;5104915;28;19958;-74
2022/04/14 07:57:16;;;;;;;;;;;18.80;78.90;;;;;;5099516;28;19912;-75
2022/04/14 07:59:42;;;;;;;;;;;19.20;78.00;;;;;;5106099;28;19912;-75
2022/04/14 08:02:07;;;;;;;;;;;19.60;76.80;;;;;;5116106;28;19916;-72
2022/04/14 08:04:34;;;;;;;;;;;19.80;76.50;;;;;;5119468;28;19915;-73
2022/04/14 08:06:59;;;;;;;;;;;20.00;76.40;;;;;;5118900;28;20057;-73
2022/04/14 08:09:25;;;;;;;;;;;20.30;75.20;;;;;;5118226;28;19947;-73
2022/04/14 08:11:51;;;;;;;;;;;20.90;76.10;;;;;;5106756;28;20364;-74
2022/04/14 08:14:16;;;;;;;;;;;21.60;75.60;;;;;;5094277;28;19966;-72
2022/04/14 08:16:42;;;;;;;;;;;22.30;73.90;;;;;;5090154;28;19919;-74
2022/04/14 08:19:08;;;;;;;;;;;22.70;70.80;;;;;;5084871;28;19919;-74
2022/04/14 08:21:33;;;;;;;;;;;23.10;70.60;;;;;;5098195;28;20366;-74
2022/04/14 08:23:59;;;;;;;;;;;23.70;70.20;;;;;;5092874;28;19912;-75
2022/04/14 08:26:28;;;;;;;;;;;24.20;69.00;;;;;;5099999;28;19924;-74
2022/04/14 08:28:55;;;;;;;;;;;24.70;68.30;;;;;;5100778;28;19912;-75
2022/04/14 08:31:22;;;;;;;;;;;25.00;68.10;;;;;;5086331;28;19916;-73
2022/04/14 08:33:50;;;;;;;;;;;25.40;66.70;;;;;;5100162;28;19934;-74
2022/04/14 08:36:16;;;;;;;;;;;25.90;65.80;;;;;;5095209;28;19934;-75
2022/04/14 08:38:44;;;;;;;;;;;26.40;65.00;;;;;;5096404;28;19998;-75
2022/04/14 08:41:11;;;;;;;;;;;26.90;65.30;;;;;;5097414;28;19957;-75
2022/04/14 08:43:36;;;;;;;;;;;27.40;65.00;;;;;;5079378;28;20369;-74
2022/04/14 08:46:03;;;;;;;;;;;27.90;64.10;;;;;;5095663;28;19980;-73
2022/04/14 08:48:29;;;;;;;;;;;28.40;61.90;;;;;;5093794;28;19965;-74
2022/04/14 08:50:55;;;;;;;;;;;28.70;59.80;;;;;;5096596;28;19987;-75
2022/04/14 08:53:24;;;;;;;;;;;29.10;60.30;;;;;;5097642;28;19919;-72
2022/04/14 08:55:50;;;;;;;;;;;29.50;58.30;;;;;;5110323;28;19942;-70
2022/04/14 08:58:16;;;;;;;;;;;29.80;56.90;;;;;;5108412;28;19926;-70
2022/04/14 09:00:42;;;;;;;;;;;30.00;56.80;;;;;;5113674;28;19908;-71
2022/04/14 09:03:08;;;;;;;;;;;30.20;56.00;;;;;;5118202;28;20000;-71
2022/04/14 09:05:34;;;;;;;;;;;30.40;55.40;;;;;;5117645;28;19912;-78
2022/04/14 09:08:00;;;;;;;;;;;30.50;55.30;;;;;;5089124;28;19909;-72
2022/04/14 09:10:27;;;;;;;;;;;30.80;55.70;;;;;;5111670;28;19912;-74
2022/04/14 09:12:52;;;;;;;;;;;31.10;56.30;;;;;;5110541;28;19912;-72
2022/04/14 09:15:18;;;;;;;;;;;31.40;54.50;;;;;;5103803;28;19912;-74
2022/04/14 09:17:44;;;;;;;;;;;31.60;54.40;;;;;;5095305;28;19995;-71
2022/04/14 09:20:28;;;;;;;;;;;31.90;54.30;;;;;;5095216;28;19955;-69
2022/04/14 09:23:10;;;;;;;;;;;32.20;54.30;;;;;;5094953;28;19918;-70
2022/04/14 09:25:35;;;;;;;;;;;32.50;53.20;;;;;;5094968;28;19938;-70
2022/04/14 09:28:11;;;;;;;;;;;32.80;53.50;;;;;;5101999;28;20354;-70
2022/04/14 09:30:37;;;;;;;;;;;33.00;53.80;;;;;;5112616;28;20274;-75
2022/04/14 09:33:03;;;;;;;;;;;33.30;53.50;;;;;;5099878;28;20023;-74
2022/04/14 09:35:31;;;;;;;;;;;33.60;54.10;;;;;;5094583;28;20294;-72
2022/04/14 09:38:06;;;;;;;;;;;33.90;53.30;;;;;;5097305;28;19908;-73
2022/04/14 09:40:35;;;;;;;;;;;34.10;52.90;;;;;;5090709;28;19920;-71
2022/04/14 09:43:01;;;;;;;;;;;34.40;51.60;;;;;;5094835;28;20010;-72
2022/04/14 09:45:28;;;;;;;;;;;34.60;49.40;;;;;;5098759;28;19946;-72
2022/04/14 09:47:54;;;;;;;;;;;34.80;50.40;;;;;;5093706;28;19912;-71
2022/04/14 09:50:24;;;;;;;;;;;34.90;50.50;;;;;;5094884;28;20048;-72
2022/04/14 09:53:05;;;;;;;;;;;35.10;50.70;;;;;;5090198;28;19916;-75
2022/04/14 09:55:32;;;;;;;;;;;35.40;50.00;;;;;;5095576;28;19948;-71
2022/04/14 09:58:11;;;;;;;;;;;35.50;46.70;;;;;;5076369;28;20328;-73
2022/04/14 10:00:38;;;;;;;;;;;35.70;49.20;;;;;;5089134;28;19916;-73
2022/04/14 10:03:07;;;;;;;;;;;35.70;46.60;;;;;;5098305;28;19918;-72
2022/04/14 10:05:34;;;;;;;;;;;35.70;45.60;;;;;;5088746;28;19991;-72
2022/04/14 10:08:00;;;;;;;;;;;35.70;46.10;;;;;;5093814;28;20007;-72
2022/04/14 10:10:25;;;;;;;;;;;35.80;46.70;;;;;;5094134;28;19962;-71
2022/04/14 10:13:01;;;;;;;;;;;36.00;47.30;;;;;;5095294;28;19913;-72
2022/04/14 10:15:27;;;;;;;;;;;36.20;48.00;;;;;;5095937;28;20286;-72
2022/04/14 10:17:53;;;;;;;;;;;36.40;46.70;;;;;;5097264;28;19916;-73
2022/04/14 10:20:20;;;;;;;;;;;36.50;47.50;;;;;;5099779;28;20324;-71
2022/04/14 10:22:47;;;;;;;;;;;36.70;46.60;;;;;;5106566;28;19912;-70
2022/04/14 10:25:13;;;;;;;;;;;36.80;45.10;;;;;;5089826;28;19961;-72
2022/04/14 10:27:39;;;;;;;;;;;36.90;45.50;;;;;;5099342;28;19953;-71
2022/04/14 10:30:05;;;;;;;;;;;36.90;45.10;;;;;;5109767;28;20002;-74
2022/04/14 10:32:33;;;;;;;;;;;37.00;45.90;;;;;;5110913;28;21487;-75
2022/04/14 10:35:01;;;;;;;;;;;37.10;44.50;;;;;;5087317;28;19912;-74
2022/04/14 10:37:33;;;;;;;;;;;37.20;46.30;;;;;;5094450;28;20267;-74
2022/04/14 10:39:59;;;;;;;;;;;37.30;45.40;;;;;;5105931;28;19915;-72
2022/04/14 10:42:25;;;;;;;;;;;37.50;45.80;;;;;;5117902;28;19907;-72
2022/04/14 10:44:52;;;;;;;;;;;37.60;43.80;;;;;;5093662;28;19966;-74
2022/04/14 10:47:36;;;;;;;;;;;37.60;44.20;;;;;;5104884;28;19908;-74
2022/04/14 10:50:03;;;;;;;;;;;37.60;44.10;;;;;;5106623;28;19916;-73
2022/04/14 10:52:29;;;;;;;;;;;37.60;43.40;;;;;;5099546;28;19912;-73
2022/04/14 10:54:58;;;;;;;;;;;37.60;41.90;;;;;;5093493;28;19919;-72
2022/04/14 10:57:44;;;;;;;;;;;37.60;43.70;;;;;;5086629;28;19908;-72
2022/04/14 11:00:18;;;;;;;;;;;37.60;40.80;;;;;;5120455;28;20003;-72
2022/04/14 11:03:04;;;;;;;;;;;37.60;42.70;;;;;;5087759;28;19908;-73
2022/04/14 11:05:43;;;;;;;;;;;37.70;43.90;;;;;;5100284;28;20362;-72
2022/04/14 11:08:29;;;;;;;;;;;37.90;42.70;;;;;;5118610;28;19908;-72
2022/04/14 11:10:54;;;;;;;;;;;37.90;40.80;;;;;;5087730;28;19951;-72
2022/04/14 11:13:20;;;;;;;;;;;38.00;42.50;;;;;;5119318;28;19911;-72
2022/04/14 11:15:46;;;;;;;;;;;38.10;41.80;;;;;;5095175;28;20382;-72
2022/04/14 11:18:11;;;;;;;;;;;38.10;41.70;;;;;;5099534;28;19915;-72
2022/04/14 11:20:44;;;;;;;;;;;38.20;42.70;;;;;;5115324;28;19915;-72
2022/04/14 11:23:15;;;;;;;;;;;38.30;42.00;;;;;;5120128;28;19907;-72
2022/04/14 11:25:49;;;;;;;;;;;38.30;38.90;;;;;;5120236;28;20266;-72
2022/04/14 11:28:16;;;;;;;;;;;38.10;38.30;;;;;;5087515;28;19908;-72
2022/04/14 11:30:41;;;;;;;;;;;38.00;38.60;;;;;;5120738;28;19916;-72
2022/04/14 11:33:14;;;;;;;;;;;38.00;39.10;;;;;;5107756;28;19935;-72
2022/04/14 11:35:44;;;;;;;;;;;38.00;39.50;;;;;;5119606;28;19907;-72
2022/04/14 11:38:30;;;;;;;;;;;38.00;39.40;;;;;;5090003;28;19914;-72
2022/04/14 11:40:55;;;;;;;;;;;38.10;40.60;;;;;;5100748;28;19916;-72
2022/04/14 11:43:22;;;;;;;;;;;38.10;40.80;;;;;;5120775;28;19908;-73
2022/04/14 11:45:50;;;;;;;;;;;38.10;40.60;;;;;;5120020;28;19914;-73
2022/04/14 11:48:15;;;;;;;;;;;38.20;40.60;;;;;;5120132;28;20425;-73
2022/04/14 11:50:41;;;;;;;;;;;38.20;41.30;;;;;;5120089;28;19966;-72
2022/04/14 11:53:06;;;;;;;;;;;38.20;39.90;;;;;;5091189;28;20354;-72
2022/04/14 11:55:42;;;;;;;;;;;38.00;38.70;;;;;;5090438;28;19944;-72
2022/04/14 11:58:12;;;;;;;;;;;37.90;39.80;;;;;;5098602;28;19939;-71
2022/04/14 12:00:51;;;;;;;;;;;37.70;39.10;;;;;;5097956;28;19912;-71
2022/04/14 12:03:29;;;;;;;;;;;37.70;38.30;;;;;;5067737;28;19967;-72
2022/04/14 12:05:55;;;;;;;;;;;37.50;37.30;;;;;;5117797;28;19958;-71
2022/04/14 12:08:21;;;;;;;;;;;37.30;37.10;;;;;;5079123;28;19912;-71
2022/04/14 12:10:46;;;;;;;;;;;37.00;37.60;;;;;;5103503;28;19919;-70
2022/04/14 12:13:12;;;;;;;;;;;36.60;37.90;;;;;;5105484;28;19910;-70
2022/04/14 12:15:38;;;;;;;;;;;36.50;38.20;;;;;;5078692;28;19912;-70
2022/04/14 12:18:04;;;;;;;;;;;36.40;38.10;;;;;;5098264;28;19946;-70
2022/04/14 12:20:35;;;;;;;;;;;36.40;38.10;;;;;;5094903;28;19934;-70
2022/04/14 12:23:00;;;;;;;;;;;36.40;38.90;;;;;;5107618;28;19908;-70
2022/04/14 12:25:27;;;;;;;;;;;36.30;37.60;;;;;;5096767;28;19908;-70
2022/04/14 12:27:53;;;;;;;;;;;36.20;38.40;;;;;;5111394;28;19908;-70
2022/04/14 12:30:20;;;;;;;;;;;36.10;37.50;;;;;;5097712;28;20259;-71
2022/04/14 12:32:47;;;;;;;;;;;36.00;37.70;;;;;;5096571;28;19935;-70
2022/04/14 12:35:30;;;;;;;;;;;35.80;38.30;;;;;;5099432;28;19916;-69
2022/04/14 12:38:09;;;;;;;;;;;35.50;38.20;;;;;;5098186;28;19916;-72
2022/04/14 12:40:35;;;;;;;;;;;35.30;39.50;;;;;;5090312;28;19978;-72
2022/04/14 12:43:03;;;;;;;;;;;35.30;40.20;;;;;;5093225;28;19916;-72
2022/04/14 12:45:36;;;;;;;;;;;35.10;39.20;;;;;;5089189;28;19912;-73
2022/04/14 12:48:01;;;;;;;;;;;34.70;39.30;;;;;;5094949;28;19947;-72
2022/04/14 12:50:27;;;;;;;;;;;34.00;39.00;;;;;;5097535;28;19919;-73
2022/04/14 12:52:57;;;;;;;;;;;33.50;39.50;;;;;;5094651;28;19958;-73
2022/04/14 12:55:23;;;;;;;;;;;33.20;40.40;;;;;;5098037;28;19916;-72
2022/04/14 12:57:50;;;;;;;;;;;32.60;39.00;;;;;;5097698;28;19919;-72
2022/04/14 13:00:18;;;;;;;;;;;32.10;39.30;;;;;;5097748;28;19916;-72
2022/04/14 13:02:58;;;;;;;;;;;31.60;39.10;;;;;;5093662;28;20412;-72
2022/04/14 13:05:26;;;;;;;;;;;30.90;39.20;;;;;;5097291;28;19912;-72
2022/04/14 13:07:53;;;;;;;;;;;30.40;39.30;;;;;;5097652;28;19950;-72
2022/04/14 13:10:26;;;;;;;;;;;29.90;40.10;;;;;;5090892;28;19943;-72
2022/04/14 13:12:52;;;;;;;;;;;29.60;41.30;;;;;;5097866;28;19908;-72
2022/04/14 13:15:19;;;;;;;;;;;29.50;40.70;;;;;;5092977;28;19915;-72
2022/04/14 13:17:45;;;;;;;;;;;29.40;41.10;;;;;;5096910;28;19924;-72
2022/04/14 13:20:16;;;;;;;;;;;29.30;42.10;;;;;;5097179;28;20049;-72
2022/04/14 13:22:42;;;;;;;;;;;29.30;42.90;;;;;;5096716;28;19912;-72
2022/04/14 13:25:08;;;;;;;;;;;29.30;42.80;;;;;;5097953;28;20370;-72
2022/04/14 13:27:34;;;;;;;;;;;29.30;42.90;;;;;;5108134;28;19963;-72
2022/04/14 13:30:00;;;;;;;;;;;29.30;42.00;;;;;;5089465;28;19939;-72
2022/04/14 13:32:29;;;;;;;;;;;29.20;41.20;;;;;;5095359;28;20397;-72
2022/04/14 13:34:55;;;;;;;;;;;29.20;41.90;;;;;;5085127;28;20370;-73
2022/04/14 13:37:21;;;;;;;;;;;29.10;41.50;;;;;;5103805;28;19930;-72
2022/04/14 13:39:47;;;;;;;;;;;28.90;41.80;;;;;;5103045;28;19912;-73
2022/04/14 13:42:13;;;;;;;;;;;28.70;43.30;;;;;;5109604;28;19920;-72
2022/04/14 13:44:39;;;;;;;;;;;28.60;42.30;;;;;;5098060;28;19930;-72
2022/04/14 13:47:04;;;;;;;;;;;28.40;43.20;;;;;;5087294;28;20350;-72
2022/04/14 13:49:30;;;;;;;;;;;28.30;43.60;;;;;;5096250;28;19912;-73
2022/04/14 13:51:55;;;;;;;;;;;28.10;43.90;;;;;;5105005;28;19947;-72
2022/04/14 13:54:21;;;;;;;;;;;28.10;43.50;;;;;;5101709;28;19948;-72
2022/04/14 13:56:48;;;;;;;;;;;28.00;43.90;;;;;;5105307;28;19958;-78
2022/04/14 13:59:13;;;;;;;;;;;27.80;43.90;;;;;;5092845;28;19912;-74
2022/04/14 14:01:39;;;;;;;;;;;27.70;43.60;;;;;;5113892;28;20433;-75
2022/04/14 14:04:05;;;;;;;;;;;27.60;43.30;;;;;;5117434;28;19908;-74
2022/04/14 14:06:31;;;;;;;;;;;27.50;43.70;;;;;;5114826;28;20006;-74
2022/04/14 14:08:56;;;;;;;;;;;27.30;43.60;;;;;;5101976;28;20328;-74
2022/04/14 14:11:22;;;;;;;;;;;27.20;44.00;;;;;;5105102;28;19973;-75
2022/04/14 14:13:50;;;;;;;;;;;27.20;43.60;;;;;;5087975;28;19913;-74
2022/04/14 14:16:16;;;;;;;;;;;27.20;44.30;;;;;;5095388;28;19965;-75
2022/04/14 14:18:43;;;;;;;;;;;27.30;44.80;;;;;;5090455;28;20331;-74